Terminal Aerodrome Forecast
Issued by NWS

Home | Current Version | Previous Version | Text Only | Print | Product List | Glossary On
Versions: 1 2 3 4 5 6 7 8 9 10 11 12 13 14 15 16 17 18 19 20 21 22 23 24 25 26 27 28 29 30 31 32 33 34 35 36 37
000
FTUS44 KSJT 181700 RRA
TAFJCT
TAF
KJCT 181743Z 1818/1918 VRB06KT P6SM SKC
     FM182200 24005KT P6SM VCTS SCT050CB
     FM190400 VRB03KT P6SM SCT050
     FM191500 22009KT P6SM SCT250=

USA.gov is the U.S. government's official web portal to all federal, state and local government web resources and services.